Accueil
METAR-TAF:

METAR-TAF

Aéroports :

Aéroport Sandro-Pertini de Turin Caselle

Turin, Italie

latitude: 45-13N, longitude: 007-39E, altitude: 301 m

Observation

Le bulletin a été fait il y a 24 minutes, à 07:50 UTC
Vent 1 kt de direction variable
Température 15°C
Humidité 94%
Pression 1016 hPa
Visibilité 10 km ou plus
Nuages épars à une hauteur de 1200 ft
Nuages fragmentés à une hauteur de 4500 ft

METAR: LIMF 260750Z VRB01KT 9999 SCT012 BKN045 15/14 Q1016

Heure: 10:14 (08:14 UTC)

Prévision

Le bulletin a été fait il y a 3 heures et 14 minutes, à 05:00 UTC
Prévision valable du 26 à 06 UTC au 27 à 06 UTC
Vent 5 kt de direction variable
Visibilité 10 km ou plus
Nuages épars à une hauteur de 3000 ft
Nuages fragmentés à une hauteur de 6000 ft
Temporairement
du 26 à 06 UTC au 26 à 10 UTC
pluie

TAF: LIMF 260500Z 2606/2706 VRB05KT 9999 SCT030 BKN060 TEMPO 2606/2610 RA

Observations et prévisions météorologiques de plus de 4000 aéroports (messages METAR et TAF).

Les stations disponibles sont représentées par des disques jaunes et rouges sur la carte.

Passer la souris dessus pour voir le nom de la station.

Cliquer dessus pour voir les observations et prévisions météorologiques.

Pour changer de carte: cliquez sur les boutons verts avec une croix noire pour zoomer, sur le bouton vert avec un tiret pour effectuer un zoom arrière, ou sur les flèches vertes pour les cartes adjacentes.


METAR-TAF: